KRNC

Warren County Memorial Airport

Mc Minnville, Tennessee, USA
METAR KRNC 280035Z AUTO 00000KT 10SM BKN070 OVC100 25/21 A2993 RMK A01
Observed Flight Rules
May-28 @ 00:35 UTC (36 minutes ago) Visual Flight Rules
Visibility Clouds
10 miles
  • Broken at 7,000' AGL
  • Overcast at 10,000' AGL
Temperatures Readings
Current 25°C / 77°F
Dewpoint 21°C / 70°F
Humidity 79%
Altimeter 29.93" Hg
Pressure 1014 hPa
Elevation 315
METAR KRNC 280035Z AUTO 00000KT 10SM BKN070 OVC100 25/21 A2993 RMK A01
Observed Flight Rules
May-28 @ 00:35 UTC
(36 minutes ago)
VFR
Clouds
  • Broken at 7,000' AGL
  • Overcast at 10,000' AGL
Temperature Dewpoint
25°C / 77°F 21°C / 70°F
Humidity Altimeter Pressure
79% 29.93" Hg 1014 hPa